Annada, Missouri
Current Conditions -  °F | °C
As of 6:55 PM on Monday 26 Jan 2015 (Local Time) from KPPQ Reporting Station
Overcast Overcast  
Wind Chill: 28°   Ceiling: 4700
Heat Index: 35°   Visibility: 10mi
Dew Point: 31°   Wind: 9mph
Humidity: 87%   Direction: 190°S
Pressure: 29.88"   Gusts: NA
Location:  39.26°N, 90.83°W
Report Text: KPPQ 270055Z AUTO 19008KT 10SM SCT041 OVC047 02/00 A2988 RMK AO2 T00161003
Loading
Personal Weather Stations






























Interactive Weather Map New forecast layout! Learn more

10-Day Weather Forecast

Advertisements
Track Severe Weather on mobile